Masterton, New Zealand
Current Conditions -  °F | °C
As of 9:00 AM on Monday 24 Nov 2014 (Local Time) from NZWN Reporting Station
Few Clouds Few Clouds  
Wind Chill: 63°   Ceiling: Unl
Heat Index: 63°   Visibility: 6mi
Dew Point: 48°   Wind: 21mph
Humidity: 59%   Direction: 360°N
Pressure: 30"   Gusts: NA
Location:  40.96°S, 175.66°E
Report Text: NZWN 232100Z AUTO 36018KT 9999 FEW024/// 17/09 Q1016 NOSIG
Loading
Personal Weather Stations






























Interactive Weather Map New forecast layout! Learn more

10-Day Weather Forecast

Advertisements
Track Severe Weather on mobile